createdAt,value
2022-12-29T00:02:01.084Z,1.15
2022-12-29T00:04:27.669Z,1.17
2022-12-29T00:06:55.464Z,1.20
2022-12-29T00:09:22.201Z,1.20
2022-12-29T00:11:49.020Z,1.63
2022-12-29T00:14:34.103Z,1.30
2022-12-29T00:17:00.884Z,1.00
2022-12-29T00:19:46.555Z,1.25
2022-12-29T00:22:32.945Z,1.25
2022-12-29T00:25:19.295Z,1.30
2022-12-29T00:30:53.362Z,3.50
2022-12-29T00:33:39.790Z,1.10
2022-12-29T00:36:13.390Z,1.23
2022-12-29T00:39:01.747Z,1.08
2022-12-29T00:41:47.018Z,1.17
2022-12-29T00:46:41.306Z,1.40
2022-12-29T00:49:27.337Z,1.48
2022-12-29T00:51:54.875Z,1.33
2022-12-29T00:54:21.554Z,1.30
2022-12-29T00:56:49.010Z,1.50
2022-12-29T00:59:17.015Z,1.38
2022-12-29T01:01:45.969Z,1.65
2022-12-29T01:04:12.935Z,1.10
2022-12-29T01:06:40.271Z,1.15
2022-12-29T01:09:27.159Z,1.70
2022-12-29T01:11:53.938Z,1.58
2022-12-29T01:14:21.271Z,1.52
2022-12-29T01:16:48.275Z,1.30
2022-12-29T01:19:16.694Z,1.20
2022-12-29T01:21:45.348Z,1.88
2022-12-29T01:24:13.196Z,1.15
2022-12-29T01:26:39.818Z,1.88
2022-12-29T01:29:06.411Z,1.58
2022-12-29T01:31:34.175Z,1.58
2022-12-29T01:34:01.046Z,1.17
2022-12-29T01:36:28.201Z,1.60
2022-12-29T01:38:54.735Z,1.10
2022-12-29T01:41:21.568Z,1.38
2022-12-29T01:43:49.837Z,1.40
2022-12-29T01:46:28.391Z,1.75
2022-12-29T01:48:58.390Z,1.08
2022-12-29T01:51:26.414Z,2.00
2022-12-29T01:53:54.595Z,1.17
2022-12-29T01:56:22.260Z,1.48
2022-12-29T01:58:50.427Z,1.95
2022-12-29T02:01:21.495Z,1.55
2022-12-29T02:03:49.713Z,1.52
2022-12-29T02:06:18.988Z,1.30
2022-12-29T02:08:47.833Z,1.23
2022-12-29T02:11:14.964Z,2.33
2022-12-29T02:13:41.552Z,1.40
2022-12-29T02:16:20.324Z,1.63
2022-12-29T02:18:46.977Z,1.63
2022-12-29T02:21:28.803Z,1.63
2022-12-29T02:23:55.382Z,1.50
2022-12-29T02:26:21.838Z,1.88
2022-12-29T02:28:57.734Z,1.35
2022-12-29T02:31:30.948Z,1.52
2022-12-29T02:33:57.822Z,1.40
2022-12-29T02:36:50.731Z,1.90
2022-12-29T02:39:20.244Z,1.70
2022-12-29T02:41:57.040Z,1.40
2022-12-29T02:44:32.871Z,1.55
2022-12-29T02:47:08.267Z,1.60
2022-12-29T02:49:39.455Z,2.38
2022-12-29T02:52:09.153Z,2.00
2022-12-29T02:54:42.453Z,3.33
2022-12-29T02:57:30.416Z,2.03
2022-12-29T02:59:57.438Z,2.53
2022-12-29T03:02:42.901Z,2.47
2022-12-29T03:05:21.018Z,2.05
2022-12-29T03:07:53.515Z,1.98
2022-12-29T03:10:29.105Z,1.92
2022-12-29T03:13:23.849Z,2.28
2022-12-29T03:16:20.899Z,2.90
2022-12-29T03:18:59.658Z,2.00
2022-12-29T03:21:49.003Z,2.22
2022-12-29T03:24:21.362Z,1.80
2022-12-29T03:26:48.872Z,2.53
2022-12-29T03:29:17.872Z,1.65
2022-12-29T03:31:48.350Z,2.03
2022-12-29T03:34:15.982Z,2.00
2022-12-29T03:36:49.199Z,2.00
2022-12-29T03:39:16.159Z,2.25
2022-12-29T03:41:45.501Z,1.52
2022-12-29T03:44:13.563Z,1.92
2022-12-29T03:46:41.219Z,2.33
2022-12-29T03:49:08.099Z,2.22
2022-12-29T03:51:34.961Z,3.33
2022-12-29T03:54:03.917Z,2.67
2022-12-29T03:56:30.538Z,2.92
2022-12-29T03:58:58.444Z,3.00
2022-12-29T04:01:31.527Z,3.20
2022-12-29T04:03:58.244Z,3.38
2022-12-29T04:06:24.889Z,4.72
2022-12-29T04:08:58.633Z,3.15
2022-12-29T04:11:32.669Z,3.42
2022-12-29T04:14:00.723Z,3.40
2022-12-29T04:16:29.401Z,3.10
2022-12-29T04:18:56.426Z,3.65
2022-12-29T04:21:23.749Z,3.80
2022-12-29T04:23:51.368Z,3.17
2022-12-29T04:26:17.982Z,3.63
2022-12-29T04:29:11.268Z,3.17
2022-12-29T04:31:49.210Z,3.17
2022-12-29T04:34:16.113Z,2.85
2022-12-29T04:36:43.445Z,3.17
2022-12-29T04:39:10.151Z,2.97
2022-12-29T04:41:39.447Z,4.22
2022-12-29T04:44:09.009Z,2.97
2022-12-29T04:46:59.083Z,3.05
2022-12-29T04:49:51.870Z,3.13
2022-12-29T04:52:41.864Z,4.13
2022-12-29T04:55:10.717Z,3.88
2022-12-29T04:57:37.927Z,3.35
2022-12-29T05:00:07.001Z,3.35
2022-12-29T05:02:36.705Z,3.03
2022-12-29T05:05:03.964Z,3.58
2022-12-29T05:07:34.497Z,2.33
2022-12-29T05:10:01.910Z,3.00
2022-12-29T05:12:33.054Z,2.85
2022-12-29T05:15:00.844Z,3.45
2022-12-29T05:17:27.531Z,2.40
2022-12-29T05:19:54.506Z,2.53
2022-12-29T05:22:21.877Z,3.17
2022-12-29T05:24:49.447Z,2.90
2022-12-29T05:27:16.669Z,2.60
2022-12-29T05:29:49.556Z,3.25
2022-12-29T05:32:16.254Z,2.80
2022-12-29T05:34:43.821Z,4.22
2022-12-29T05:37:11.322Z,3.28
2022-12-29T05:39:40.781Z,3.65
2022-12-29T05:42:09.017Z,4.78
2022-12-29T05:44:56.134Z,5.70
2022-12-29T05:47:41.450Z,4.18
2022-12-29T05:50:31.221Z,4.60
2022-12-29T05:53:18.236Z,5.15
2022-12-29T05:55:49.055Z,4.18
2022-12-29T05:58:17.873Z,3.80
2022-12-29T06:00:44.778Z,3.75
2022-12-29T06:03:12.755Z,3.25
2022-12-29T06:05:39.690Z,3.50
2022-12-29T06:08:06.933Z,3.67
2022-12-29T06:10:34.911Z,2.20
2022-12-29T06:13:06.615Z,3.60
2022-12-29T06:15:37.229Z,2.97
2022-12-29T06:18:06.825Z,2.90
2022-12-29T06:20:34.799Z,3.33
2022-12-29T06:23:05.011Z,2.95
2022-12-29T06:25:33.413Z,3.63
2022-12-29T06:28:00.332Z,3.50
2022-12-29T06:30:27.597Z,3.10
2022-12-29T06:32:55.345Z,3.00
2022-12-29T06:35:24.226Z,4.07
2022-12-29T06:37:52.133Z,3.45
2022-12-29T06:40:19.940Z,3.42
2022-12-29T06:43:05.315Z,3.30
2022-12-29T06:48:17.273Z,2.75
2022-12-29T06:50:43.833Z,3.72
2022-12-29T06:53:10.418Z,4.07
2022-12-29T06:55:37.669Z,3.63
2022-12-29T06:58:04.318Z,3.83
2022-12-29T07:00:31.132Z,3.72
2022-12-29T07:03:00.858Z,3.85
2022-12-29T07:05:28.768Z,3.38
2022-12-29T07:07:55.816Z,4.60
2022-12-29T07:10:23.014Z,2.90
2022-12-29T07:12:49.766Z,3.10
2022-12-29T07:15:16.346Z,2.90
2022-12-29T07:17:43.369Z,5.15
2022-12-29T07:20:10.273Z,3.42
2022-12-29T07:22:37.515Z,3.15
2022-12-29T07:25:04.673Z,3.13
2022-12-29T07:27:31.314Z,3.35
2022-12-29T07:29:57.963Z,2.75
2022-12-29T07:32:24.556Z,3.20
2022-12-29T07:34:51.303Z,3.90
2022-12-29T07:37:18.134Z,3.38
2022-12-29T07:39:44.684Z,3.53
2022-12-29T07:42:11.503Z,2.97
2022-12-29T07:44:42.799Z,2.88
2022-12-29T07:49:43.996Z,2.95
2022-12-29T07:52:10.767Z,3.15
2022-12-29T07:54:37.378Z,4.22
2022-12-29T07:57:04.693Z,3.15
2022-12-29T07:59:31.575Z,3.92
2022-12-29T08:01:58.232Z,2.78
2022-12-29T08:04:25.124Z,3.10
2022-12-29T08:06:51.599Z,2.88
2022-12-29T08:09:22.729Z,2.45
2022-12-29T08:11:51.427Z,3.38
2022-12-29T08:14:18.292Z,2.88
2022-12-29T08:16:50.254Z,2.50
2022-12-29T08:19:17.101Z,2.78
2022-12-29T08:21:44.010Z,2.47
2022-12-29T08:24:10.863Z,3.10
2022-12-29T08:26:37.969Z,2.95
2022-12-29T08:29:04.704Z,2.63
2022-12-29T08:31:31.489Z,2.70
2022-12-29T08:33:58.245Z,2.72
2022-12-29T08:36:24.757Z,2.58
2022-12-29T08:38:51.308Z,2.85
2022-12-29T08:41:18.050Z,2.88
2022-12-29T08:43:48.463Z,2.45
2022-12-29T08:46:15.345Z,3.00
2022-12-29T08:48:43.737Z,2.47
2022-12-29T08:51:10.420Z,3.05
2022-12-29T08:53:37.331Z,3.10
2022-12-29T08:56:05.788Z,4.05
2022-12-29T08:58:42.797Z,3.08
2022-12-29T09:01:10.341Z,3.58
2022-12-29T09:04:12.890Z,4.13
2022-12-29T09:06:24.148Z,3.10
2022-12-29T09:08:50.769Z,3.65
2022-12-29T09:11:18.869Z,4.72
2022-12-29T09:13:45.756Z,3.63
2022-12-29T09:16:12.978Z,4.28
2022-12-29T09:18:40.191Z,3.50
2022-12-29T09:21:07.301Z,4.22
2022-12-29T09:23:34.453Z,4.65
2022-12-29T09:26:01.378Z,4.15
2022-12-29T09:28:30.098Z,4.32
2022-12-29T09:30:57.023Z,4.03
2022-12-29T09:33:23.872Z,4.43
2022-12-29T09:35:52.091Z,3.78
2022-12-29T09:38:18.719Z,4.18
2022-12-29T09:40:46.356Z,3.20
2022-12-29T09:43:12.936Z,3.95
2022-12-29T09:45:54.351Z,4.38
2022-12-29T09:48:22.646Z,3.30
2022-12-29T09:50:51.309Z,3.88
2022-12-29T09:53:20.841Z,3.78
2022-12-29T09:55:52.563Z,5.38
2022-12-29T09:58:37.647Z,3.85
2022-12-29T10:01:22.959Z,4.65
2022-12-29T10:03:51.268Z,4.47
2022-12-29T10:06:23.566Z,4.35
2022-12-29T10:08:50.822Z,5.18
2022-12-29T10:11:17.362Z,4.53
2022-12-29T10:14:00.699Z,3.97
2022-12-29T10:16:33.749Z,4.50
2022-12-29T10:19:18.526Z,4.93
2022-12-29T10:21:58.737Z,4.22
2022-12-29T10:24:26.131Z,4.43
2022-12-29T10:26:53.592Z,4.32
2022-12-29T10:29:21.773Z,4.50
2022-12-29T10:32:01.702Z,4.95
2022-12-29T10:34:28.472Z,4.20
2022-12-29T10:37:06.453Z,4.60
2022-12-29T10:39:46.509Z,3.72
2022-12-29T10:42:32.020Z,4.50
2022-12-29T10:47:27.506Z,4.03
2022-12-29T10:49:54.900Z,3.10
2022-12-29T10:52:23.306Z,3.83
2022-12-29T10:54:50.222Z,4.22
2022-12-29T10:57:29.141Z,4.10
2022-12-29T10:59:56.185Z,4.47
2022-12-29T11:02:28.825Z,3.40
2022-12-29T11:05:11.606Z,4.32
2022-12-29T11:07:38.259Z,4.05
2022-12-29T11:10:42.051Z,3.70
2022-12-29T11:13:16.676Z,3.88
2022-12-29T11:15:48.508Z,3.72
2022-12-29T11:18:28.690Z,3.40
2022-12-29T11:20:57.172Z,3.75
2022-12-29T11:23:25.639Z,3.75
2022-12-29T11:26:10.756Z,4.05
2022-12-29T11:28:39.061Z,2.85
2022-12-29T11:31:06.541Z,2.88
2022-12-29T11:33:34.899Z,3.38
2022-12-29T11:36:04.356Z,5.57
2022-12-29T11:38:36.550Z,3.47
2022-12-29T11:41:04.420Z,2.90
2022-12-29T11:43:36.649Z,3.70
2022-12-29T11:46:06.297Z,2.97
2022-12-29T11:48:42.571Z,2.85
2022-12-29T11:51:10.840Z,3.60
2022-12-29T11:53:37.579Z,3.05
2022-12-29T11:56:07.249Z,3.30
2022-12-29T11:58:35.302Z,3.35
2022-12-29T12:01:04.178Z,3.20
2022-12-29T12:03:32.675Z,2.45
2022-12-29T12:06:01.821Z,1.73
2022-12-29T12:08:43.651Z,3.15
2022-12-29T12:11:14.894Z,2.15
2022-12-29T12:13:41.533Z,2.22
2022-12-29T12:16:12.923Z,2.10
2022-12-29T12:18:42.906Z,2.38
2022-12-29T12:21:23.049Z,2.08
2022-12-29T12:24:11.551Z,1.85
2022-12-29T12:26:43.780Z,1.88
2022-12-29T12:29:17.350Z,2.38
2022-12-29T12:31:47.787Z,2.10
2022-12-29T12:34:21.475Z,2.30
2022-12-29T12:36:53.801Z,1.52
2022-12-29T12:39:20.501Z,2.08
2022-12-29T12:41:53.379Z,2.42
2022-12-29T12:44:25.445Z,2.20
2022-12-29T12:47:11.021Z,2.50
2022-12-29T12:49:56.358Z,1.80
2022-12-29T12:52:41.596Z,1.92
2022-12-29T12:55:10.141Z,2.83
2022-12-29T12:57:52.310Z,2.60
2022-12-29T13:00:20.887Z,1.75
2022-12-29T13:02:55.094Z,1.90
2022-12-29T13:05:27.088Z,2.33
2022-12-29T13:08:12.857Z,2.22
2022-12-29T13:10:57.722Z,1.70
2022-12-29T13:13:40.261Z,1.85
2022-12-29T13:16:14.921Z,1.90
2022-12-29T13:21:13.936Z,1.80
2022-12-29T13:23:40.651Z,1.70
2022-12-29T13:26:07.315Z,1.98
2022-12-29T13:28:43.997Z,2.63
2022-12-29T13:31:19.788Z,1.80
2022-12-29T13:33:46.733Z,1.98
2022-12-29T13:36:28.205Z,1.80
2022-12-29T13:39:06.584Z,1.95
2022-12-29T13:41:44.405Z,1.58
2022-12-29T13:44:16.703Z,2.00
2022-12-29T13:46:47.756Z,2.13
2022-12-29T13:49:17.935Z,1.83
2022-12-29T13:51:54.899Z,2.20
2022-12-29T13:54:56.942Z,1.60
2022-12-29T13:57:29.870Z,2.10
2022-12-29T14:00:00.273Z,1.90
2022-12-29T14:02:39.134Z,1.83
2022-12-29T14:05:24.016Z,2.10
2022-12-29T14:07:58.217Z,1.52
2022-12-29T14:10:45.124Z,1.73
2022-12-29T14:13:11.782Z,1.30
2022-12-29T14:15:46.977Z,1.73
2022-12-29T14:18:19.333Z,1.80
2022-12-29T14:20:54.859Z,1.40
2022-12-29T14:23:29.057Z,1.85
2022-12-29T14:26:00.434Z,1.50
2022-12-29T14:28:31.099Z,1.30
2022-12-29T14:30:58.709Z,1.55
2022-12-29T14:33:27.784Z,1.38
2022-12-29T14:35:55.286Z,1.83
2022-12-29T14:38:28.875Z,1.40
2022-12-29T14:41:20.517Z,1.90
2022-12-29T14:43:59.829Z,2.42
2022-12-29T14:46:27.264Z,1.90
2022-12-29T14:48:59.325Z,1.77
2022-12-29T14:51:30.659Z,2.17
2022-12-29T14:53:57.426Z,1.80
2022-12-29T14:56:32.327Z,1.73
2022-12-29T15:01:25.821Z,1.70
2022-12-29T15:03:59.900Z,1.90
2022-12-29T15:06:29.243Z,2.40
2022-12-29T15:09:01.854Z,2.40
2022-12-29T15:11:42.276Z,1.92
2022-12-29T15:14:27.530Z,1.60
2022-12-29T15:16:54.249Z,1.70
2022-12-29T15:19:24.933Z,2.25
2022-12-29T15:21:51.793Z,1.67
2022-12-29T15:24:18.407Z,2.00
2022-12-29T15:26:47.352Z,2.75
2022-12-29T15:29:34.029Z,3.42
2022-12-29T15:32:01.692Z,1.92
2022-12-29T15:34:31.271Z,2.22
2022-12-29T15:36:58.239Z,1.83
2022-12-29T15:39:27.771Z,2.35
2022-12-29T15:42:01.086Z,2.10
2022-12-29T15:44:34.682Z,2.38
2022-12-29T15:47:05.385Z,2.30
2022-12-29T15:49:32.821Z,2.50
2022-12-29T15:52:00.109Z,3.08
2022-12-29T15:54:28.945Z,1.58
2022-12-29T15:56:56.622Z,2.47
2022-12-29T15:59:25.919Z,2.35
2022-12-29T16:01:53.090Z,2.45
2022-12-29T16:04:21.273Z,2.20
2022-12-29T16:07:04.650Z,1.95
2022-12-29T16:09:31.500Z,1.95
2022-12-29T16:12:00.306Z,2.17
2022-12-29T16:14:33.173Z,2.13
2022-12-29T16:17:01.900Z,1.80
2022-12-29T16:19:36.636Z,2.55
2022-12-29T16:22:04.383Z,2.00
2022-12-29T16:24:32.598Z,2.83
2022-12-29T16:27:17.610Z,2.08
2022-12-29T16:29:44.821Z,2.55
2022-12-29T16:32:40.976Z,2.50
2022-12-29T16:35:24.011Z,2.88
2022-12-29T16:38:11.039Z,2.17
2022-12-29T16:40:50.872Z,2.55
2022-12-29T16:43:24.720Z,3.88
2022-12-29T16:45:51.507Z,2.28
2022-12-29T16:48:19.947Z,2.55
2022-12-29T16:50:47.601Z,3.08
2022-12-29T16:53:19.999Z,2.63
2022-12-29T16:55:47.741Z,2.80
2022-12-29T16:58:19.020Z,2.35
2022-12-29T17:00:46.612Z,2.33
2022-12-29T17:03:13.635Z,2.00
2022-12-29T17:05:40.381Z,2.55
2022-12-29T17:08:24.056Z,2.55
2022-12-29T17:11:13.676Z,2.22
2022-12-29T17:13:40.510Z,2.63
2022-12-29T17:16:10.811Z,4.32
2022-12-29T17:18:37.991Z,2.45
2022-12-29T17:21:04.571Z,4.10
2022-12-29T17:23:32.288Z,3.88
2022-12-29T17:25:58.995Z,3.10
2022-12-29T17:28:27.140Z,3.30
2022-12-29T17:30:54.064Z,2.95
2022-12-29T17:33:21.261Z,3.33
2022-12-29T17:35:53.213Z,3.15
2022-12-29T17:38:24.000Z,4.05
2022-12-29T17:40:50.995Z,3.92
2022-12-29T17:43:18.195Z,2.90
2022-12-29T17:45:47.562Z,4.65
2022-12-29T17:48:15.604Z,3.45
2022-12-29T17:50:42.548Z,3.50
2022-12-29T17:53:17.151Z,2.65
2022-12-29T17:55:43.942Z,4.28
2022-12-29T17:58:16.606Z,3.35
2022-12-29T18:00:43.536Z,3.25
2022-12-29T18:03:15.115Z,3.58
2022-12-29T18:05:42.108Z,3.72
2022-12-29T18:08:10.094Z,3.60
2022-12-29T18:10:36.990Z,4.07
2022-12-29T18:13:03.882Z,3.85
2022-12-29T18:15:34.709Z,2.95
2022-12-29T18:18:12.078Z,2.95
2022-12-29T18:20:39.702Z,3.25
2022-12-29T18:23:06.472Z,3.70
2022-12-29T18:25:41.633Z,3.95
2022-12-29T18:28:08.250Z,4.15
2022-12-29T18:30:36.100Z,3.72
2022-12-29T18:33:03.281Z,2.90
2022-12-29T18:35:37.714Z,3.42
2022-12-29T18:38:06.196Z,3.40
2022-12-29T18:40:33.879Z,2.35
2022-12-29T18:43:00.709Z,4.47
2022-12-29T18:45:27.955Z,2.95
2022-12-29T18:47:54.606Z,3.05
2022-12-29T18:50:21.351Z,2.65
2022-12-29T18:52:47.960Z,3.60
2022-12-29T18:55:19.708Z,3.70
2022-12-29T18:57:46.832Z,3.97
2022-12-29T19:00:14.790Z,3.40
2022-12-29T19:02:44.042Z,3.42
2022-12-29T19:05:19.303Z,3.28
2022-12-29T19:07:47.622Z,2.85
2022-12-29T19:10:14.316Z,4.28
2022-12-29T19:12:41.017Z,3.13
2022-12-29T19:15:20.201Z,3.00
2022-12-29T19:18:01.724Z,2.90
2022-12-29T19:20:33.909Z,2.67
2022-12-29T19:23:01.837Z,2.70
2022-12-29T19:25:31.037Z,2.83
2022-12-29T19:27:57.856Z,2.85
2022-12-29T19:30:24.701Z,2.58
2022-12-29T19:32:53.295Z,3.50
2022-12-29T19:35:20.967Z,3.72
2022-12-29T19:37:48.217Z,3.58
2022-12-29T19:40:16.333Z,3.63
2022-12-29T19:42:43.237Z,3.17
2022-12-29T19:45:09.953Z,4.30
2022-12-29T19:47:36.653Z,2.63
2022-12-29T19:50:04.262Z,3.13
2022-12-29T19:52:32.465Z,2.80
2022-12-29T19:54:59.719Z,2.75
2022-12-29T19:57:26.852Z,2.50
2022-12-29T19:59:53.462Z,3.97
2022-12-29T20:02:22.449Z,2.65
2022-12-29T20:04:52.071Z,2.42
2022-12-29T20:07:19.120Z,3.70
2022-12-29T20:09:46.144Z,2.42
2022-12-29T20:12:13.239Z,3.03
2022-12-29T20:14:40.483Z,2.63
2022-12-29T20:17:11.651Z,3.45
2022-12-29T20:19:39.296Z,3.88
2022-12-29T20:22:07.145Z,2.17
2022-12-29T20:24:34.611Z,2.60
2022-12-29T20:27:03.124Z,2.80
2022-12-29T20:29:38.965Z,2.97
2022-12-29T20:32:13.896Z,2.35
2022-12-29T20:37:07.388Z,3.17
2022-12-29T20:39:34.572Z,2.45
2022-12-29T20:42:01.188Z,3.00
2022-12-29T20:44:28.415Z,2.97
2022-12-29T20:46:55.562Z,2.35
2022-12-29T20:49:22.395Z,2.80
2022-12-29T20:52:06.590Z,3.70
2022-12-29T20:54:39.007Z,2.47
2022-12-29T20:57:06.650Z,2.72
2022-12-29T20:59:33.345Z,3.00
2022-12-29T21:02:00.660Z,2.70
2022-12-29T21:04:27.513Z,3.30
2022-12-29T21:06:54.432Z,5.35
2022-12-29T21:09:21.872Z,2.75
2022-12-29T21:11:48.855Z,2.75
2022-12-29T21:14:15.608Z,2.50
2022-12-29T21:16:42.521Z,2.97
2022-12-29T21:19:09.072Z,2.70
2022-12-29T21:21:35.916Z,2.90
2022-12-29T21:24:05.849Z,2.45
2022-12-29T21:26:33.373Z,2.72
2022-12-29T21:29:00.976Z,2.67
2022-12-29T21:31:32.423Z,2.67
2022-12-29T21:34:00.992Z,2.20
2022-12-29T21:36:28.161Z,2.13
2022-12-29T21:38:55.372Z,3.10
2022-12-29T21:41:22.321Z,2.90
2022-12-29T21:44:08.946Z,2.13
2022-12-29T21:46:36.487Z,2.63
2022-12-29T21:49:03.682Z,2.53
2022-12-29T21:51:48.723Z,1.80
2022-12-29T21:54:34.436Z,2.22
2022-12-29T21:57:01.174Z,2.20
2022-12-29T21:59:46.327Z,1.80
2022-12-29T22:02:49.885Z,1.80
2022-12-29T22:05:35.293Z,1.98
2022-12-29T22:08:21.136Z,2.47
2022-12-29T22:11:06.878Z,2.08
2022-12-29T22:13:35.586Z,2.08
2022-12-29T22:16:06.394Z,1.88
2022-12-29T22:18:33.173Z,1.65
2022-12-29T22:21:03.141Z,1.80
2022-12-29T22:23:29.783Z,1.85
2022-12-29T22:25:56.455Z,2.00
2022-12-29T22:28:23.320Z,1.80
2022-12-29T22:30:49.969Z,2.10
2022-12-29T22:33:16.814Z,1.52
2022-12-29T22:35:43.359Z,2.40
2022-12-29T22:38:10.025Z,1.80
2022-12-29T22:40:36.698Z,2.28
2022-12-29T22:43:07.965Z,2.85
2022-12-29T22:45:38.776Z,2.05
2022-12-29T22:48:05.518Z,2.30
2022-12-29T22:50:32.560Z,1.80
2022-12-29T22:52:59.203Z,2.03
2022-12-29T22:55:25.750Z,2.00
2022-12-29T22:57:52.221Z,2.35
2022-12-29T23:00:18.948Z,2.28
2022-12-29T23:02:45.749Z,2.50
2022-12-29T23:05:12.506Z,2.03
2022-12-29T23:07:39.400Z,2.33
2022-12-29T23:10:06.200Z,3.08
2022-12-29T23:12:33.020Z,2.38
2022-12-29T23:14:59.873Z,2.45
2022-12-29T23:17:26.659Z,2.60
2022-12-29T23:19:53.725Z,2.40
2022-12-29T23:22:20.635Z,1.80
2022-12-29T23:24:47.221Z,2.17
2022-12-29T23:27:13.976Z,2.67
2022-12-29T23:29:40.778Z,2.15
2022-12-29T23:32:07.371Z,1.80
2022-12-29T23:34:33.926Z,2.17
2022-12-29T23:37:00.535Z,2.35
2022-12-29T23:39:28.891Z,2.55
2022-12-29T23:41:55.472Z,1.98
2022-12-29T23:44:22.255Z,1.65
2022-12-29T23:46:49.072Z,1.85
2022-12-29T23:49:15.821Z,2.00
2022-12-29T23:51:42.397Z,2.63
2022-12-29T23:54:09.086Z,2.20
2022-12-29T23:56:35.694Z,2.25
2022-12-29T23:59:06.050Z,2.38
